sensor_id;sensor_type;location;lat;lon;timestamp;pressure;altitude;pressure_sealevel;temperature;humidity
19114;BME280;9689;51.052;13.772;2022-07-10T00:00:20;100674.91;;;13.73;73.91
19114;BME280;9689;51.052;13.772;2022-07-10T00:05:22;100677.50;;;13.71;72.17
19114;BME280;9689;51.052;13.772;2022-07-10T00:10:23;100679.38;;;13.63;73.10
19114;BME280;9689;51.052;13.772;2022-07-10T00:15:25;100677.69;;;13.62;72.98
19114;BME280;9689;51.052;13.772;2022-07-10T00:20:26;100681.38;;;13.49;72.30
19114;BME280;9689;51.052;13.772;2022-07-10T00:25:26;100680.66;;;13.37;72.52
19114;BME280;9689;51.052;13.772;2022-07-10T00:30:29;100692.03;;;13.27;73.39
19114;BME280;9689;51.052;13.772;2022-07-10T00:35:30;100683.66;;;13.12;72.58
19114;BME280;9689;51.052;13.772;2022-07-10T00:40:31;100688.06;;;13.05;72.80
19114;BME280;9689;51.052;13.772;2022-07-10T00:45:33;100690.66;;;13.04;72.80
19114;BME280;9689;51.052;13.772;2022-07-10T00:50:33;100681.13;;;13.08;72.72
19114;BME280;9689;51.052;13.772;2022-07-10T00:55:35;100689.66;;;13.13;71.27
19114;BME280;9689;51.052;13.772;2022-07-10T01:00:38;100692.06;;;13.24;69.55
19114;BME280;9689;51.052;13.772;2022-07-10T01:05:39;100696.25;;;13.31;68.29
19114;BME280;9689;51.052;13.772;2022-07-10T01:10:40;100690.19;;;13.32;67.40
19114;BME280;9689;51.052;13.772;2022-07-10T01:15:42;100679.84;;;13.35;67.30
19114;BME280;9689;51.052;13.772;2022-07-10T01:20:43;100686.69;;;13.36;65.50
19114;BME280;9689;51.052;13.772;2022-07-10T01:25:45;100684.09;;;13.38;65.26
19114;BME280;9689;51.052;13.772;2022-07-10T01:30:46;100690.94;;;13.40;65.41
19114;BME280;9689;51.052;13.772;2022-07-10T01:35:47;100692.56;;;13.44;65.00
19114;BME280;9689;51.052;13.772;2022-07-10T01:40:49;100690.06;;;13.40;65.56
19114;BME280;9689;51.052;13.772;2022-07-10T01:45:50;100682.28;;;13.46;65.30
19114;BME280;9689;51.052;13.772;2022-07-10T01:50:51;100680.41;;;13.53;65.38
19114;BME280;9689;51.052;13.772;2022-07-10T01:55:53;100669.25;;;13.54;62.92
19114;BME280;9689;51.052;13.772;2022-07-10T02:00:54;100672.75;;;13.50;63.19
19114;BME280;9689;51.052;13.772;2022-07-10T02:05:55;100666.59;;;13.55;63.58
19114;BME280;9689;51.052;13.772;2022-07-10T02:10:57;100665.00;;;13.50;63.41
19114;BME280;9689;51.052;13.772;2022-07-10T02:15:58;100657.19;;;13.53;63.75
19114;BME280;9689;51.052;13.772;2022-07-10T02:20:59;100658.16;;;13.49;63.43
19114;BME280;9689;51.052;13.772;2022-07-10T02:26:01;100660.53;;;13.58;63.41
19114;BME280;9689;51.052;13.772;2022-07-10T02:31:02;100645.06;;;13.58;64.02
19114;BME280;9689;51.052;13.772;2022-07-10T02:36:04;100642.66;;;13.49;64.43
19114;BME280;9689;51.052;13.772;2022-07-10T02:41:06;100646.94;;;13.50;65.22
19114;BME280;9689;51.052;13.772;2022-07-10T02:46:07;100645.38;;;13.39;65.10
19114;BME280;9689;51.052;13.772;2022-07-10T02:51:08;100636.88;;;13.34;64.88
19114;BME280;9689;51.052;13.772;2022-07-10T02:56:10;100646.13;;;13.44;65.18
19114;BME280;9689;51.052;13.772;2022-07-10T03:01:10;100637.56;;;13.44;64.40
19114;BME280;9689;51.052;13.772;2022-07-10T03:06:11;100657.34;;;13.43;64.87
19114;BME280;9689;51.052;13.772;2022-07-10T03:11:13;100637.59;;;13.41;65.63
19114;BME280;9689;51.052;13.772;2022-07-10T03:16:14;100640.34;;;13.31;65.53
19114;BME280;9689;51.052;13.772;2022-07-10T03:21:15;100638.56;;;13.35;65.41
19114;BME280;9689;51.052;13.772;2022-07-10T03:26:17;100634.31;;;13.32;65.61
19114;BME280;9689;51.052;13.772;2022-07-10T03:31:17;100639.53;;;13.29;65.78
19114;BME280;9689;51.052;13.772;2022-07-10T03:36:18;100626.56;;;13.34;65.11
19114;BME280;9689;51.052;13.772;2022-07-10T03:41:20;100630.81;;;13.37;66.07
19114;BME280;9689;51.052;13.772;2022-07-10T03:46:21;100635.22;;;13.28;65.38
19114;BME280;9689;51.052;13.772;2022-07-10T03:51:22;100626.81;;;13.18;65.67
19114;BME280;9689;51.052;13.772;2022-07-10T03:56:24;100630.16;;;13.24;65.74
19114;BME280;9689;51.052;13.772;2022-07-10T04:01:42;100626.78;;;13.20;65.99
19114;BME280;9689;51.052;13.772;2022-07-10T04:06:43;100628.53;;;13.19;65.58
19114;BME280;9689;51.052;13.772;2022-07-10T04:11:45;100620.97;;;13.09;65.82
19114;BME280;9689;51.052;13.772;2022-07-10T04:16:46;100623.56;;;13.09;65.48
19114;BME280;9689;51.052;13.772;2022-07-10T04:21:47;100615.81;;;13.09;66.10
19114;BME280;9689;51.052;13.772;2022-07-10T04:26:49;100615.56;;;13.23;65.58
19114;BME280;9689;51.052;13.772;2022-07-10T04:31:49;100618.78;;;13.36;64.72
19114;BME280;9689;51.052;13.772;2022-07-10T04:36:50;100622.91;;;13.44;64.75
19114;BME280;9689;51.052;13.772;2022-07-10T04:41:52;100617.13;;;13.31;64.45
19114;BME280;9689;51.052;13.772;2022-07-10T04:46:53;100625.44;;;13.49;64.42
19114;BME280;9689;51.052;13.772;2022-07-10T04:51:54;100610.03;;;13.46;63.88
19114;BME280;9689;51.052;13.772;2022-07-10T04:56:56;100620.22;;;13.52;64.34
19114;BME280;9689;51.052;13.772;2022-07-10T05:01:57;100619.28;;;13.56;64.26
19114;BME280;9689;51.052;13.772;2022-07-10T05:06:58;100615.75;;;13.62;64.16
19114;BME280;9689;51.052;13.772;2022-07-10T05:12:00;100617.53;;;13.60;63.99
19114;BME280;9689;51.052;13.772;2022-07-10T05:17:01;100612.38;;;13.60;63.59
19114;BME280;9689;51.052;13.772;2022-07-10T05:22:02;100613.28;;;13.57;64.22
19114;BME280;9689;51.052;13.772;2022-07-10T05:27:05;100620.75;;;13.70;64.18
19114;BME280;9689;51.052;13.772;2022-07-10T05:32:07;100620.84;;;13.65;64.25
19114;BME280;9689;51.052;13.772;2022-07-10T05:37:08;100634.31;;;13.80;63.86
19114;BME280;9689;51.052;13.772;2022-07-10T05:42:10;100624.59;;;13.49;64.32
19114;BME280;9689;51.052;13.772;2022-07-10T05:47:11;100629.16;;;13.80;64.72
19114;BME280;9689;51.052;13.772;2022-07-10T05:52:12;100623.31;;;13.70;64.39
19114;BME280;9689;51.052;13.772;2022-07-10T05:57:14;100638.47;;;13.87;64.62
19114;BME280;9689;51.052;13.772;2022-07-10T06:02:15;100633.03;;;13.57;66.28
19114;BME280;9689;51.052;13.772;2022-07-10T06:07:23;100632.69;;;13.76;66.31
19114;BME280;9689;51.052;13.772;2022-07-10T06:12:25;100623.72;;;13.95;64.72
19114;BME280;9689;51.052;13.772;2022-07-10T06:17:26;100634.91;;;13.94;64.93
19114;BME280;9689;51.052;13.772;2022-07-10T06:22:26;100641.03;;;13.90;65.19
19114;BME280;9689;51.052;13.772;2022-07-10T06:27:35;100641.38;;;13.71;65.47
19114;BME280;9689;51.052;13.772;2022-07-10T06:32:36;100634.38;;;13.78;65.96
19114;BME280;9689;51.052;13.772;2022-07-10T06:37:37;100633.59;;;13.75;66.85
19114;BME280;9689;51.052;13.772;2022-07-10T06:42:39;100644.94;;;13.64;67.75
19114;BME280;9689;51.052;13.772;2022-07-10T06:47:45;100622.41;;;13.72;66.54
19114;BME280;9689;51.052;13.772;2022-07-10T06:52:59;100623.50;;;14.06;65.49
19114;BME280;9689;51.052;13.772;2022-07-10T06:58:01;100623.28;;;14.16;63.24
19114;BME280;9689;51.052;13.772;2022-07-10T07:03:02;100633.84;;;14.05;62.71
19114;BME280;9689;51.052;13.772;2022-07-10T07:08:04;100653.78;;;13.98;62.84
19114;BME280;9689;51.052;13.772;2022-07-10T07:13:06;100634.75;;;13.58;65.16
19114;BME280;9689;51.052;13.772;2022-07-10T07:18:08;100660.03;;;13.86;66.28
19114;BME280;9689;51.052;13.772;2022-07-10T07:23:12;100643.31;;;13.60;66.78
19114;BME280;9689;51.052;13.772;2022-07-10T07:28:15;100647.13;;;13.86;66.61
19114;BME280;9689;51.052;13.772;2022-07-10T07:33:17;100633.91;;;14.41;64.32
19114;BME280;9689;51.052;13.772;2022-07-10T07:38:18;100648.44;;;14.07;65.06
19114;BME280;9689;51.052;13.772;2022-07-10T07:43:20;100643.28;;;14.06;65.36
19114;BME280;9689;51.052;13.772;2022-07-10T07:48:21;100636.66;;;13.94;65.74
19114;BME280;9689;51.052;13.772;2022-07-10T07:53:21;100647.63;;;14.04;66.15
19114;BME280;9689;51.052;13.772;2022-07-10T07:58:23;100632.47;;;14.67;63.92
19114;BME280;9689;51.052;13.772;2022-07-10T08:03:24;100649.53;;;14.77;62.31
19114;BME280;9689;51.052;13.772;2022-07-10T08:08:45;100641.41;;;14.91;61.89
19114;BME280;9689;51.052;13.772;2022-07-10T08:13:47;100639.81;;;15.22;61.04
19114;BME280;9689;51.052;13.772;2022-07-10T08:18:48;100630.91;;;15.32;59.40
19114;BME280;9689;51.052;13.772;2022-07-10T08:23:50;100621.19;;;15.09;59.91
19114;BME280;9689;51.052;13.772;2022-07-10T08:28:54;100613.69;;;15.31;59.38
19114;BME280;9689;51.052;13.772;2022-07-10T08:33:55;100612.31;;;15.18;60.61
19114;BME280;9689;51.052;13.772;2022-07-10T08:38:55;100610.94;;;15.38;59.57
19114;BME280;9689;51.052;13.772;2022-07-10T08:43:59;100603.09;;;16.04;56.65
19114;BME280;9689;51.052;13.772;2022-07-10T08:49:05;100629.47;;;15.22;57.45
19114;BME280;9689;51.052;13.772;2022-07-10T08:54:09;100619.53;;;15.05;57.39
19114;BME280;9689;51.052;13.772;2022-07-10T08:59:12;100629.78;;;14.34;60.58
19114;BME280;9689;51.052;13.772;2022-07-10T09:04:16;100661.56;;;13.96;62.32
19114;BME280;9689;51.052;13.772;2022-07-10T09:09:18;100633.41;;;13.82;62.33
19114;BME280;9689;51.052;13.772;2022-07-10T09:14:20;100624.44;;;14.43;61.46
19114;BME280;9689;51.052;13.772;2022-07-10T09:19:34;100615.69;;;14.87;59.86
19114;BME280;9689;51.052;13.772;2022-07-10T09:24:36;100627.84;;;15.18;58.20
19114;BME280;9689;51.052;13.772;2022-07-10T09:29:48;100625.06;;;15.59;55.36
19114;BME280;9689;51.052;13.772;2022-07-10T09:34:52;100619.84;;;15.92;53.82
19114;BME280;9689;51.052;13.772;2022-07-10T09:40:13;100619.00;;;15.58;53.32
19114;BME280;9689;51.052;13.772;2022-07-10T09:45:20;100635.09;;;15.38;54.12
19114;BME280;9689;51.052;13.772;2022-07-10T09:50:26;100622.22;;;15.35;54.77
19114;BME280;9689;51.052;13.772;2022-07-10T09:55:29;100621.69;;;15.87;54.33
19114;BME280;9689;51.052;13.772;2022-07-10T10:00:33;100614.75;;;15.87;53.43
19114;BME280;9689;51.052;13.772;2022-07-10T10:05:36;100621.38;;;16.28;52.60
19114;BME280;9689;51.052;13.772;2022-07-10T10:10:38;100611.31;;;16.47;49.06
19114;BME280;9689;51.052;13.772;2022-07-10T10:15:42;100605.88;;;16.82;49.57
19114;BME280;9689;51.052;13.772;2022-07-10T10:20:45;100600.56;;;17.12;45.57
19114;BME280;9689;51.052;13.772;2022-07-10T10:25:47;100609.38;;;16.81;46.59
19114;BME280;9689;51.052;13.772;2022-07-10T10:30:52;100604.44;;;16.17;48.14
19114;BME280;9689;51.052;13.772;2022-07-10T10:35:54;100621.16;;;16.36;49.14
19114;BME280;9689;51.052;13.772;2022-07-10T10:41:24;100620.59;;;16.26;49.17
19114;BME280;9689;51.052;13.772;2022-07-10T10:46:26;100626.31;;;16.37;48.99
19114;BME280;9689;51.052;13.772;2022-07-10T10:51:56;100619.97;;;16.17;49.38
19114;BME280;9689;51.052;13.772;2022-07-10T10:57:13;100611.94;;;16.54;49.35
19114;BME280;9689;51.052;13.772;2022-07-10T11:02:24;100625.13;;;16.75;48.72
19114;BME280;9689;51.052;13.772;2022-07-10T11:07:53;100614.03;;;16.42;49.08
19114;BME280;9689;51.052;13.772;2022-07-10T11:12:59;100628.25;;;16.29;48.55
19114;BME280;9689;51.052;13.772;2022-07-10T11:18:04;100629.78;;;16.36;49.51
19114;BME280;9689;51.052;13.772;2022-07-10T11:23:34;100640.69;;;16.17;50.05
19114;BME280;9689;51.052;13.772;2022-07-10T11:28:50;100633.72;;;16.20;50.77
19114;BME280;9689;51.052;13.772;2022-07-10T11:33:55;100620.09;;;16.70;50.69
19114;BME280;9689;51.052;13.772;2022-07-10T11:38:57;100618.44;;;16.94;46.45
19114;BME280;9689;51.052;13.772;2022-07-10T11:43:59;100608.69;;;17.28;46.95
19114;BME280;9689;51.052;13.772;2022-07-10T11:49:04;100609.91;;;17.67;46.11
19114;BME280;9689;51.052;13.772;2022-07-10T11:54:06;100604.97;;;17.61;46.08
19114;BME280;9689;51.052;13.772;2022-07-10T11:59:09;100608.59;;;17.06;47.68
19114;BME280;9689;51.052;13.772;2022-07-10T12:04:12;100610.31;;;16.51;48.78
19114;BME280;9689;51.052;13.772;2022-07-10T12:09:15;100616.59;;;16.15;49.77
19114;BME280;9689;51.052;13.772;2022-07-10T12:14:17;100653.28;;;16.00;50.80
19114;BME280;9689;51.052;13.772;2022-07-10T12:19:22;100637.41;;;15.81;51.37
19114;BME280;9689;51.052;13.772;2022-07-10T12:24:24;100642.53;;;15.82;51.01
19114;BME280;9689;51.052;13.772;2022-07-10T12:29:27;100645.50;;;16.00;49.63
19114;BME280;9689;51.052;13.772;2022-07-10T12:34:36;100649.19;;;16.23;49.76
19114;BME280;9689;51.052;13.772;2022-07-10T12:39:46;100656.91;;;15.94;50.25
19114;BME280;9689;51.052;13.772;2022-07-10T12:44:47;100654.88;;;16.06;50.12
19114;BME280;9689;51.052;13.772;2022-07-10T12:49:54;100641.91;;;16.64;48.74
19114;BME280;9689;51.052;13.772;2022-07-10T12:55:11;100641.78;;;16.94;48.47
19114;BME280;9689;51.052;13.772;2022-07-10T13:00:15;100639.25;;;17.20;46.57
19114;BME280;9689;51.052;13.772;2022-07-10T13:05:30;100641.97;;;17.66;46.92
19114;BME280;9689;51.052;13.772;2022-07-10T13:10:32;100636.91;;;18.12;46.22
19114;BME280;9689;51.052;13.772;2022-07-10T13:15:33;100634.28;;;18.34;45.50
19114;BME280;9689;51.052;13.772;2022-07-10T13:20:40;100633.00;;;18.89;43.30
19114;BME280;9689;51.052;13.772;2022-07-10T13:25:41;100652.91;;;18.00;44.58
19114;BME280;9689;51.052;13.772;2022-07-10T13:30:42;100621.09;;;17.93;45.03
19114;BME280;9689;51.052;13.772;2022-07-10T13:35:44;100611.38;;;17.98;44.69
19114;BME280;9689;51.052;13.772;2022-07-10T13:40:45;100608.78;;;17.98;44.74
19114;BME280;9689;51.052;13.772;2022-07-10T13:45:47;100605.44;;;17.71;45.45
19114;BME280;9689;51.052;13.772;2022-07-10T13:50:49;100605.22;;;17.77;45.15
19114;BME280;9689;51.052;13.772;2022-07-10T13:55:50;100604.41;;;17.76;44.98
19114;BME280;9689;51.052;13.772;2022-07-10T14:00:50;100614.09;;;17.47;45.38
19114;BME280;9689;51.052;13.772;2022-07-10T14:05:53;100596.53;;;17.30;45.77
19114;BME280;9689;51.052;13.772;2022-07-10T14:10:53;100605.50;;;17.20;46.04
19114;BME280;9689;51.052;13.772;2022-07-10T14:15:54;100610.44;;;17.53;45.26
19114;BME280;9689;51.052;13.772;2022-07-10T14:20:56;100604.13;;;18.08;44.47
19114;BME280;9689;51.052;13.772;2022-07-10T14:26:03;100600.22;;;17.96;45.01
19114;BME280;9689;51.052;13.772;2022-07-10T14:31:06;100599.47;;;17.92;45.52
19114;BME280;9689;51.052;13.772;2022-07-10T14:36:09;100597.84;;;17.66;46.32
19114;BME280;9689;51.052;13.772;2022-07-10T14:41:09;100592.63;;;17.66;46.70
19114;BME280;9689;51.052;13.772;2022-07-10T14:46:10;100593.72;;;17.60;46.43
19114;BME280;9689;51.052;13.772;2022-07-10T14:51:12;100592.75;;;17.63;47.09
19114;BME280;9689;51.052;13.772;2022-07-10T14:56:14;100595.56;;;17.80;46.29
19114;BME280;9689;51.052;13.772;2022-07-10T15:01:16;100592.09;;;17.82;46.01
19114;BME280;9689;51.052;13.772;2022-07-10T15:06:19;100586.59;;;18.13;44.45
19114;BME280;9689;51.052;13.772;2022-07-10T15:11:19;100581.53;;;18.32;43.96
19114;BME280;9689;51.052;13.772;2022-07-10T15:16:22;100582.13;;;18.17;44.24
19114;BME280;9689;51.052;13.772;2022-07-10T15:21:24;100576.16;;;17.91;44.76
19114;BME280;9689;51.052;13.772;2022-07-10T15:26:25;100579.16;;;17.80;45.28
19114;BME280;9689;51.052;13.772;2022-07-10T15:31:26;100579.09;;;17.82;45.44
19114;BME280;9689;51.052;13.772;2022-07-10T15:36:28;100562.16;;;18.40;44.46
19114;BME280;9689;51.052;13.772;2022-07-10T15:41:29;100554.25;;;18.84;43.27
19114;BME280;9689;51.052;13.772;2022-07-10T15:46:30;100552.44;;;18.45;44.28
19114;BME280;9689;51.052;13.772;2022-07-10T15:51:32;100570.78;;;18.19;44.59
19114;BME280;9689;51.052;13.772;2022-07-10T15:56:33;100547.13;;;18.69;43.63
19114;BME280;9689;51.052;13.772;2022-07-10T16:01:37;100554.53;;;18.57;43.26
19114;BME280;9689;51.052;13.772;2022-07-10T16:06:40;100543.53;;;18.28;44.61
19114;BME280;9689;51.052;13.772;2022-07-10T16:11:40;100534.78;;;18.09;44.71
19114;BME280;9689;51.052;13.772;2022-07-10T16:16:41;100540.88;;;18.07;44.54
19114;BME280;9689;51.052;13.772;2022-07-10T16:21:44;100524.28;;;18.12;44.76
19114;BME280;9689;51.052;13.772;2022-07-10T16:26:45;100532.19;;;18.09;45.24
19114;BME280;9689;51.052;13.772;2022-07-10T16:31:47;100533.91;;;18.10;44.75
19114;BME280;9689;51.052;13.772;2022-07-10T16:36:49;100524.94;;;18.17;44.36
19114;BME280;9689;51.052;13.772;2022-07-10T16:41:50;100527.59;;;18.38;43.26
19114;BME280;9689;51.052;13.772;2022-07-10T16:46:52;100530.53;;;18.71;43.26
19114;BME280;9689;51.052;13.772;2022-07-10T16:51:54;100516.81;;;19.09;41.66
19114;BME280;9689;51.052;13.772;2022-07-10T16:56:55;100525.97;;;19.18;41.34
19114;BME280;9689;51.052;13.772;2022-07-10T17:01:56;100528.25;;;18.84;41.39
19114;BME280;9689;51.052;13.772;2022-07-10T17:06:58;100530.72;;;18.87;41.90
19114;BME280;9689;51.052;13.772;2022-07-10T17:11:59;100521.28;;;18.85;41.63
19114;BME280;9689;51.052;13.772;2022-07-10T17:17:00;100536.34;;;18.78;41.55
19114;BME280;9689;51.052;13.772;2022-07-10T17:22:03;100522.78;;;18.70;41.84
19114;BME280;9689;51.052;13.772;2022-07-10T17:27:05;100517.13;;;18.60;42.05
19114;BME280;9689;51.052;13.772;2022-07-10T17:32:09;100514.47;;;18.61;42.84
19114;BME280;9689;51.052;13.772;2022-07-10T17:37:11;100518.75;;;18.63;42.50
19114;BME280;9689;51.052;13.772;2022-07-10T17:42:12;100505.38;;;18.51;42.20
19114;BME280;9689;51.052;13.772;2022-07-10T17:47:13;100515.06;;;18.47;42.60
19114;BME280;9689;51.052;13.772;2022-07-10T17:52:15;100518.97;;;18.36;43.23
19114;BME280;9689;51.052;13.772;2022-07-10T17:57:16;100520.28;;;18.25;43.65
19114;BME280;9689;51.052;13.772;2022-07-10T18:02:16;100517.69;;;18.25;43.88
19114;BME280;9689;51.052;13.772;2022-07-10T18:07:18;100524.63;;;18.25;44.01
19114;BME280;9689;51.052;13.772;2022-07-10T18:12:19;100514.84;;;18.09;44.16
19114;BME280;9689;51.052;13.772;2022-07-10T18:17:20;100522.25;;;18.18;43.99
19114;BME280;9689;51.052;13.772;2022-07-10T18:22:23;100521.63;;;18.13;44.24
19114;BME280;9689;51.052;13.772;2022-07-10T18:27:23;100526.59;;;18.19;44.32
19114;BME280;9689;51.052;13.772;2022-07-10T18:32:24;100524.88;;;18.18;44.66
19114;BME280;9689;51.052;13.772;2022-07-10T18:37:40;100527.13;;;18.05;44.79
19114;BME280;9689;51.052;13.772;2022-07-10T18:42:41;100529.38;;;17.91;45.08
19114;BME280;9689;51.052;13.772;2022-07-10T18:47:42;100524.56;;;17.82;45.39
19114;BME280;9689;51.052;13.772;2022-07-10T18:52:44;100523.25;;;17.70;45.67
19114;BME280;9689;51.052;13.772;2022-07-10T18:57:45;100519.25;;;17.61;46.49
19114;BME280;9689;51.052;13.772;2022-07-10T19:02:47;100524.47;;;17.61;46.83
19114;BME280;9689;51.052;13.772;2022-07-10T19:07:50;100527.19;;;17.56;47.25
19114;BME280;9689;51.052;13.772;2022-07-10T19:12:51;100530.88;;;17.50;47.30
19114;BME280;9689;51.052;13.772;2022-07-10T19:17:52;100549.28;;;17.44;47.68
19114;BME280;9689;51.052;13.772;2022-07-10T19:22:54;100550.53;;;17.34;48.43
19114;BME280;9689;51.052;13.772;2022-07-10T19:27:55;100560.06;;;17.33;48.04
19114;BME280;9689;51.052;13.772;2022-07-10T19:32:58;100561.13;;;17.28;48.65
19114;BME280;9689;51.052;13.772;2022-07-10T19:38:00;100561.22;;;17.24;49.00
19114;BME280;9689;51.052;13.772;2022-07-10T19:43:01;100569.09;;;17.23;49.42
19114;BME280;9689;51.052;13.772;2022-07-10T19:48:02;100573.69;;;17.15;49.37
19114;BME280;9689;51.052;13.772;2022-07-10T19:53:04;100572.94;;;17.11;49.79
19114;BME280;9689;51.052;13.772;2022-07-10T19:58:06;100572.28;;;17.06;50.04
19114;BME280;9689;51.052;13.772;2022-07-10T20:03:07;100575.09;;;16.98;50.27
19114;BME280;9689;51.052;13.772;2022-07-10T20:08:13;100584.59;;;16.97;50.59
19114;BME280;9689;51.052;13.772;2022-07-10T20:13:14;100587.28;;;16.96;50.37
19114;BME280;9689;51.052;13.772;2022-07-10T20:18:15;100586.41;;;16.95;50.53
19114;BME280;9689;51.052;13.772;2022-07-10T20:23:20;100586.63;;;16.89;50.09
19114;BME280;9689;51.052;13.772;2022-07-10T20:28:21;100590.22;;;16.85;50.63
19114;BME280;9689;51.052;13.772;2022-07-10T20:33:21;100591.06;;;16.85;50.64
19114;BME280;9689;51.052;13.772;2022-07-10T20:38:24;100591.25;;;16.79;50.57
19114;BME280;9689;51.052;13.772;2022-07-10T20:43:24;100598.50;;;16.69;51.04
19114;BME280;9689;51.052;13.772;2022-07-10T20:48:25;100590.72;;;16.69;51.47
19114;BME280;9689;51.052;13.772;2022-07-10T20:53:28;100590.81;;;16.66;51.61
19114;BME280;9689;51.052;13.772;2022-07-10T20:58:28;100605.69;;;16.61;52.35
19114;BME280;9689;51.052;13.772;2022-07-10T21:03:29;100595.44;;;16.56;52.80
19114;BME280;9689;51.052;13.772;2022-07-10T21:08:31;100598.28;;;16.49;52.86
19114;BME280;9689;51.052;13.772;2022-07-10T21:13:32;100600.94;;;16.47;53.48
19114;BME280;9689;51.052;13.772;2022-07-10T21:18:33;100608.94;;;16.39;53.74
19114;BME280;9689;51.052;13.772;2022-07-10T21:23:35;100614.13;;;16.39;54.00
19114;BME280;9689;51.052;13.772;2022-07-10T21:28:40;100612.63;;;16.32;54.47
19114;BME280;9689;51.052;13.772;2022-07-10T21:33:42;100624.78;;;16.30;54.89
19114;BME280;9689;51.052;13.772;2022-07-10T21:38:45;100625.06;;;16.21;55.01
19114;BME280;9689;51.052;13.772;2022-07-10T21:43:45;100627.13;;;16.09;55.50
19114;BME280;9689;51.052;13.772;2022-07-10T21:48:46;100630.50;;;16.11;55.58
19114;BME280;9689;51.052;13.772;2022-07-10T21:53:48;100621.13;;;16.07;56.20
19114;BME280;9689;51.052;13.772;2022-07-10T21:58:49;100626.56;;;15.99;56.29
19114;BME280;9689;51.052;13.772;2022-07-10T22:03:49;100629.22;;;15.96;56.72
19114;BME280;9689;51.052;13.772;2022-07-10T22:08:52;100631.94;;;15.92;56.62
19114;BME280;9689;51.052;13.772;2022-07-10T22:13:53;100631.25;;;15.85;57.08
19114;BME280;9689;51.052;13.772;2022-07-10T22:18:53;100638.31;;;15.78;57.32
19114;BME280;9689;51.052;13.772;2022-07-10T22:23:55;100650.53;;;15.73;57.75
19114;BME280;9689;51.052;13.772;2022-07-10T22:28:56;100647.19;;;15.69;57.71
19114;BME280;9689;51.052;13.772;2022-07-10T22:33:57;100643.91;;;15.64;58.00
19114;BME280;9689;51.052;13.772;2022-07-10T22:39:00;100649.78;;;15.69;58.00
19114;BME280;9689;51.052;13.772;2022-07-10T22:44:01;100646.53;;;15.62;58.21
19114;BME280;9689;51.052;13.772;2022-07-10T22:49:02;100638.81;;;15.59;58.36
19114;BME280;9689;51.052;13.772;2022-07-10T22:54:05;100641.50;;;15.56;58.64
19114;BME280;9689;51.052;13.772;2022-07-10T22:59:05;100642.41;;;15.55;58.77
19114;BME280;9689;51.052;13.772;2022-07-10T23:04:07;100638.06;;;15.56;58.88
19114;BME280;9689;51.052;13.772;2022-07-10T23:09:09;100647.59;;;15.55;59.21
19114;BME280;9689;51.052;13.772;2022-07-10T23:14:09;100644.25;;;15.50;59.43
19114;BME280;9689;51.052;13.772;2022-07-10T23:19:10;100636.03;;;15.34;60.39
19114;BME280;9689;51.052;13.772;2022-07-10T23:24:12;100636.97;;;15.31;60.50
19114;BME280;9689;51.052;13.772;2022-07-10T23:29:13;100641.53;;;15.21;61.48
19114;BME280;9689;51.052;13.772;2022-07-10T23:34:14;100639.81;;;15.22;61.72
19114;BME280;9689;51.052;13.772;2022-07-10T23:39:16;100638.41;;;15.08;62.44
19114;BME280;9689;51.052;13.772;2022-07-10T23:44:17;100639.44;;;15.03;62.72
19114;BME280;9689;51.052;13.772;2022-07-10T23:49:18;100643.22;;;14.89;63.63
19114;BME280;9689;51.052;13.772;2022-07-10T23:54:37;100632.78;;;14.92;63.94
19114;BME280;9689;51.052;13.772;2022-07-10T23:59:41;100637.16;;;14.89;64.53
